This is the latest recevied weather packets stored in our database for station/object VE7KNL-13. If no packets are shown the sender has not sent any weather packets the latest 10 day(s).
| Time | Temp. | Humidity | Pressure | Rain* | Wind** | Luminosity | Snow |
|---|---|---|---|---|---|---|---|
| 1777488018 | 18.89° C | 34% | 1019.4 hPa | 0 mm | - | - | - |
| 1777487418 | 18.33° C | 36% | 1019.3 hPa | 0 mm | - | - | - |
| 1777485018 | 16.67° C | 46% | 1019.7 hPa | 0 mm | - | - | - |
| 1777483218 | 15° C | 53% | 1019.9 hPa | 0 mm | - | - | - |
| 1777480817 | 12.78° C | 57% | 1020.1 hPa | 0 mm | - | - | - |
| 1777477217 | 10° C | 68% | 1021 hPa | 0 mm | - | - | - |
| 1777476017 | 8.33° C | 73% | 1021 hPa | 0 mm | - | - | - |
| 1777474817 | 7.22° C | 77% | 1020.8 hPa | 0 mm | - | - | - |
| 1777467017 | 0.56° C | 92% | 1019.8 hPa | 0 mm | - | - | - |
| 1777461617 | 1.67° C | 91% | 1019.5 hPa | 0 mm | - | - | - |
| 1777452616 | 3.89° C | 85% | 1018.7 hPa | 0 mm | - | - | - |
| 1777446016 | 6.67° C | 78% | 1017.6 hPa | 0 mm | - | - | - |
| 1777435237 | 11.67° C | 66% | 1015.3 hPa | 0 mm | - | - | - |
| 1777432217 | 13.33° C | 57% | 1013.9 hPa | 0 mm | - | - | - |
| 1777427437 | 16.11° C | 44% | 1013.1 hPa | 0 mm | - | - | - |
| 1777426817 | 16.67° C | 44% | 1012.7 hPa | 0 mm | - | - | - |
| 1777423817 | 17.22° C | 37% | 1012.5 hPa | 0 mm | - | - | - |
| 1777417217 | 19.44° C | 31% | 1012.4 hPa | 0 mm | - | - | - |
| 1777416657 | 18.89° C | 34% | 1012.4 hPa | 0 mm | - | - | - |
| 1777416016 | 18.89° C | 32% | 1012.5 hPa | 0 mm | - | - | - |
| 1777410616 | 17.78° C | 36% | 1012.7 hPa | 0 mm | - | - | - |
| 1777408218 | 17.22° C | 38% | 1012.7 hPa | 0 mm | - | - | - |
| 1777406418 | 17.22° C | 39% | 1012.9 hPa | 0 mm | - | - | - |
| 1777404618 | 16.67° C | 40% | 1013.1 hPa | 0 mm | - | - | - |
| 1777404018 | 16.67° C | 41% | 1013.3 hPa | 0 mm | - | - | - |
* Rain latest hour (hover to see other rain measurements)
** Current wind speed in m/s (hover to see current wind gust speed)